Time;durP1;ratioP1;P1;durP2;ratioP2;P2;SDS_P1;SDS_P2;PMS_P1;PMS_P2;Temp;Humidity;BMP_temperature;BMP_pressure;BME280_temperature;BME280_humidity;BME280_pressure;Samples;Min_cycle;Max_cycle;Signal;HPM_P1;HPM_P2
2021/09/08 00:01:20;;;;;;;;;13.00;13.00;;;;;23.64;43.77;101306.41;5093810;27;45513;-73
2021/09/08 00:03:45;;;;;;;;;14.75;13.00;;;;;23.69;44.20;101326.47;5093394;27;49101;-73
2021/09/08 00:06:10;;;;;;;;;12.75;11.25;;;;;23.64;44.04;101309.06;5094120;27;45318;-73
2021/09/08 00:08:36;;;;;;;;;14.50;12.00;;;;;23.63;44.13;101313.59;5094049;27;45457;-73
2021/09/08 00:11:01;;;;;;;;;9.75;9.75;;;;;23.60;44.60;101313.84;5093932;27;48496;-73
2021/09/08 00:13:29;;;;;;;;;12.25;11.00;;;;;23.56;44.49;101299.00;5095081;27;45328;-73
2021/09/08 00:15:54;;;;;;;;;13.00;11.50;;;;;23.55;44.67;101307.19;5092772;27;45392;-73
2021/09/08 00:18:19;;;;;;;;;15.25;11.75;;;;;23.52;44.66;101300.25;5094004;27;45646;-73
2021/09/08 00:20:45;;;;;;;;;10.50;10.00;;;;;23.44;45.18;101292.06;5094282;27;45374;-72
2021/09/08 00:23:10;;;;;;;;;11.50;10.00;;;;;23.46;44.96;101294.59;5088255;27;45349;-73
2021/09/08 00:25:35;;;;;;;;;13.00;12.00;;;;;23.41;44.43;101293.16;5096446;27;45314;-72
2021/09/08 00:28:01;;;;;;;;;10.25;10.00;;;;;23.37;44.62;101285.53;5092109;27;51057;-72
2021/09/08 00:30:26;;;;;;;;;16.75;12.75;;;;;23.28;44.38;101278.28;5087833;27;45747;-72
2021/09/08 00:32:52;;;;;;;;;13.25;12.75;;;;;23.29;45.07;101275.47;5086327;27;45617;-73
2021/09/08 00:35:17;;;;;;;;;11.25;9.75;;;;;23.28;45.38;101276.44;5093820;27;47430;-73
2021/09/08 00:37:42;;;;;;;;;17.25;15.00;;;;;23.23;44.99;101262.63;5095291;27;46285;-72
2021/09/08 00:40:09;;;;;;;;;12.25;9.50;;;;;23.26;44.97;101262.31;5092064;27;45516;-72
2021/09/08 00:42:34;;;;;;;;;13.50;12.25;;;;;23.20;45.14;101257.50;5091374;27;45432;-73
2021/09/08 00:45:00;;;;;;;;;10.25;10.25;;;;;23.16;45.08;101250.72;5093572;27;45490;-73
2021/09/08 00:47:25;;;;;;;;;14.00;12.00;;;;;23.15;45.06;101254.38;5093518;27;46044;-72
2021/09/08 00:49:51;;;;;;;;;19.00;12.50;;;;;23.07;45.17;101249.69;5094698;27;45446;-72
2021/09/08 00:52:16;;;;;;;;;11.75;10.75;;;;;23.08;45.63;101255.91;5094978;27;45358;-72
2021/09/08 00:54:49;;;;;;;;;13.75;12.00;;;;;23.03;45.93;101248.28;5093484;27;45523;-73
2021/09/08 00:57:17;;;;;;;;;12.50;11.00;;;;;22.98;45.62;101246.97;5093103;27;46539;-73
2021/09/08 00:59:44;;;;;;;;;11.75;11.75;;;;;22.96;45.60;101240.88;5092940;27;45515;-73
2021/09/08 01:02:10;;;;;;;;;13.25;12.25;;;;;22.96;46.17;101247.09;5093285;27;45414;-72
2021/09/08 01:04:36;;;;;;;;;14.25;11.25;;;;;22.89;46.12;101232.53;5095446;27;45370;-73
2021/09/08 01:07:03;;;;;;;;;11.00;11.00;;;;;22.93;45.72;101247.38;5093428;27;45540;-74
2021/09/08 01:09:29;;;;;;;;;11.50;11.00;;;;;22.91;46.15;101247.47;5091263;27;45673;-73
2021/09/08 01:11:54;;;;;;;;;14.75;11.00;;;;;22.83;46.25;101239.25;5092953;27;45402;-73
2021/09/08 01:14:20;;;;;;;;;14.25;11.00;;;;;22.80;46.24;101236.81;5093438;27;45401;-75
2021/09/08 01:16:51;;;;;;;;;17.25;12.25;;;;;22.85;46.45;101242.63;5094163;27;45629;-74
2021/09/08 01:19:17;;;;;;;;;10.50;9.50;;;;;22.82;46.83;101245.59;5095302;27;45436;-73
2021/09/08 01:21:42;;;;;;;;;15.25;13.50;;;;;22.79;46.71;101237.81;5092336;27;45330;-73
2021/09/08 01:24:08;;;;;;;;;17.50;11.50;;;;;22.75;46.38;101236.38;5093334;27;45566;-73
2021/09/08 01:26:35;;;;;;;;;13.50;12.00;;;;;22.74;47.48;101241.88;5091807;27;46165;-73
2021/09/08 01:29:00;;;;;;;;;11.25;11.00;;;;;22.71;47.35;101243.00;5093042;27;45542;-74
2021/09/08 01:31:27;;;;;;;;;14.75;12.00;;;;;22.63;47.10;101232.06;5095781;27;45306;-73
2021/09/08 01:33:53;;;;;;;;;17.50;14.75;;;;;22.65;47.54;101236.31;5092141;27;45476;-74
2021/09/08 01:36:18;;;;;;;;;13.00;12.25;;;;;22.62;47.64;101233.91;5089426;27;46178;-73
2021/09/08 01:38:43;;;;;;;;;15.25;13.00;;;;;22.56;48.33;101230.91;5091460;27;45453;-73
2021/09/08 01:41:08;;;;;;;;;14.75;13.25;;;;;22.57;48.25;101229.94;5092409;27;45595;-74
2021/09/08 01:43:34;;;;;;;;;15.00;14.50;;;;;22.53;48.22;101229.34;5094536;27;45536;-73
2021/09/08 01:45:59;;;;;;;;;13.75;11.75;;;;;22.43;48.23;101222.22;5092311;27;45847;-74
2021/09/08 01:48:24;;;;;;;;;13.50;12.25;;;;;22.40;48.74;101220.66;5092002;27;45466;-74
2021/09/08 01:50:50;;;;;;;;;13.00;12.50;;;;;22.43;48.66;101233.78;5093257;27;45388;-73
2021/09/08 01:53:15;;;;;;;;;12.00;10.50;;;;;22.40;48.77;101220.66;5093170;27;45539;-73
2021/09/08 01:55:41;;;;;;;;;15.00;13.00;;;;;22.29;49.15;101212.66;5094050;27;45703;-73
2021/09/08 01:58:06;;;;;;;;;13.75;13.00;;;;;22.32;49.05;101221.28;5092224;27;45441;-73
2021/09/08 02:00:31;;;;;;;;;14.25;12.25;;;;;22.30;49.05;101220.59;5091384;27;45313;-73
2021/09/08 02:02:57;;;;;;;;;13.00;12.00;;;;;22.24;48.46;101214.88;5091000;27;45330;-73
2021/09/08 02:05:22;;;;;;;;;12.25;11.25;;;;;22.24;48.51;101209.53;5093047;27;46115;-73
2021/09/08 02:07:47;;;;;;;;;16.50;13.50;;;;;22.24;48.41;101212.19;5093880;27;45270;-73
2021/09/08 02:10:13;;;;;;;;;12.25;12.25;;;;;22.23;48.66;101207.84;5093597;27;45367;-73
2021/09/08 02:12:38;;;;;;;;;16.25;12.50;;;;;22.21;48.78;101205.28;5091791;27;45480;-73
2021/09/08 02:15:05;;;;;;;;;16.25;12.50;;;;;22.19;49.30;101204.59;5092774;27;45426;-73
2021/09/08 02:17:31;;;;;;;;;15.25;12.00;;;;;22.16;49.10;101207.50;5093434;27;45697;-73
2021/09/08 02:19:56;;;;;;;;;13.25;12.00;;;;;22.06;49.40;101191.34;5093124;27;45396;-73
2021/09/08 02:22:22;;;;;;;;;12.00;11.75;;;;;22.09;49.53;101199.13;5094539;27;46086;-73
2021/09/08 02:24:47;;;;;;;;;15.50;13.75;;;;;22.05;49.76;101202.19;5091914;27;47363;-73
2021/09/08 02:27:12;;;;;;;;;10.75;10.75;;;;;22.00;49.97;101185.66;5092333;27;45443;-73
2021/09/08 02:29:38;;;;;;;;;12.75;11.50;;;;;21.97;49.70;101189.44;5091502;27;45389;-73
2021/09/08 02:32:04;;;;;;;;;13.00;12.50;;;;;21.96;49.47;101182.38;5092333;27;45530;-73
2021/09/08 02:34:29;;;;;;;;;14.75;13.25;;;;;21.95;49.93;101180.69;5094082;27;45376;-73
2021/09/08 02:36:55;;;;;;;;;15.75;13.00;;;;;21.90;49.74;101169.53;5091073;27;45543;-73
2021/09/08 02:39:20;;;;;;;;;14.75;11.50;;;;;21.90;49.92;101166.84;5089756;27;46309;-73
2021/09/08 02:41:45;;;;;;;;;15.50;11.75;;;;;21.86;50.03;101163.56;5092577;27;45558;-73
2021/09/08 02:44:11;;;;;;;;;11.75;11.25;;;;;21.81;50.11;101162.25;5092265;27;45244;-73
2021/09/08 02:46:36;;;;;;;;;20.50;14.00;;;;;21.83;50.17;101165.66;5093236;27;45586;-73
2021/09/08 02:49:01;;;;;;;;;19.50;14.25;;;;;21.81;50.85;101163.09;5092656;27;45501;-73
2021/09/08 02:51:27;;;;;;;;;16.75;10.50;;;;;21.79;51.08;101166.91;5093021;27;45638;-73
2021/09/08 02:53:52;;;;;;;;;13.75;12.00;;;;;21.76;50.95;101157.28;5095174;27;46448;-73
2021/09/08 02:56:18;;;;;;;;;17.25;13.00;;;;;21.74;50.51;101159.25;5096201;27;45275;-75
2021/09/08 02:58:43;;;;;;;;;17.00;14.00;;;;;21.55;51.06;101125.16;5097186;27;45461;-74
2021/09/08 03:01:11;;;;;;;;;15.75;15.00;;;;;21.70;50.89;101159.63;5095829;27;45504;-73
2021/09/08 03:03:38;;;;;;;;;15.25;14.50;;;;;21.67;51.06;101151.88;5095148;27;46309;-73
2021/09/08 03:06:03;;;;;;;;;15.25;14.25;;;;;21.61;51.04;101148.72;5093717;27;45250;-75
2021/09/08 03:08:28;;;;;;;;;18.75;14.25;;;;;21.46;51.40;101117.91;5094503;27;45414;-73
2021/09/08 03:10:54;;;;;;;;;15.25;15.00;;;;;21.57;51.63;101138.41;5095685;27;45363;-73
2021/09/08 03:13:19;;;;;;;;;16.00;15.00;;;;;21.56;51.26;101134.91;5094586;27;47811;-73
2021/09/08 03:15:46;;;;;;;;;15.25;13.00;;;;;21.47;52.13;101132.97;5095387;27;48419;-74
2021/09/08 03:18:11;;;;;;;;;15.50;14.25;;;;;21.35;51.67;101116.13;5094711;27;45671;-73
2021/09/08 03:20:37;;;;;;;;;17.25;15.25;;;;;21.40;51.87;101126.41;5094386;27;45297;-74
2021/09/08 03:23:03;;;;;;;;;18.25;15.75;;;;;21.39;52.53;101130.06;5093835;27;45488;-73
2021/09/08 03:25:28;;;;;;;;;18.00;13.75;;;;;21.36;52.03;101131.19;5096977;27;45779;-73
2021/09/08 03:27:54;;;;;;;;;15.50;15.00;;;;;21.31;52.13;101130.72;5094480;27;45499;-74
2021/09/08 03:30:20;;;;;;;;;19.00;14.75;;;;;21.27;52.37;101125.69;5095593;27;45335;-73
2021/09/08 03:32:45;;;;;;;;;18.25;14.75;;;;;21.22;52.45;101123.41;5094313;27;46483;-73
2021/09/08 03:35:11;;;;;;;;;20.00;14.00;;;;;21.22;52.98;101127.91;5092387;27;45986;-73
2021/09/08 03:37:37;;;;;;;;;16.50;15.25;;;;;21.13;52.77;101124.13;5096113;27;45557;-73
2021/09/08 03:40:04;;;;;;;;;17.25;15.50;;;;;21.16;52.69;101121.22;5093340;27;45401;-73
2021/09/08 03:42:30;;;;;;;;;20.50;15.75;;;;;21.14;52.97;101120.50;5094416;27;45520;-74
2021/09/08 03:44:55;;;;;;;;;21.00;16.00;;;;;21.06;53.64;101109.59;5094586;27;47717;-74
2021/09/08 03:47:21;;;;;;;;;15.00;12.75;;;;;21.06;53.60;101107.75;5093943;27;45299;-73
2021/09/08 03:49:46;;;;;;;;;19.50;16.50;;;;;21.05;53.86;101107.91;5095375;27;45460;-74
2021/09/08 03:52:16;;;;;;;;;16.25;14.00;;;;;21.04;53.39;101109.72;5094673;27;46028;-73
2021/09/08 03:54:43;;;;;;;;;21.25;18.25;;;;;20.96;53.70;101085.44;5093968;27;45530;-73
2021/09/08 03:57:08;;;;;;;;;15.25;13.25;;;;;20.97;53.33;101087.13;5093107;27;45315;-73
2021/09/08 03:59:35;;;;;;;;;16.75;16.00;;;;;20.94;54.14;101079.38;5094677;27;45459;-73
2021/09/08 04:02:00;;;;;;;;;19.50;14.75;;;;;20.92;54.40;101083.97;5092971;27;46340;-73
2021/09/08 04:04:25;;;;;;;;;18.00;15.00;;;;;20.85;54.32;101078.28;5094898;27;45412;-73
2021/09/08 04:06:51;;;;;;;;;19.75;17.75;;;;;20.85;54.37;101072.09;5093831;27;45372;-73
2021/09/08 04:09:16;;;;;;;;;17.00;17.00;;;;;20.90;54.47;101072.56;5092791;27;47906;-73
2021/09/08 04:11:42;;;;;;;;;19.75;15.75;;;;;20.83;54.68;101066.88;5093996;27;46413;-73
2021/09/08 04:14:09;;;;;;;;;17.25;15.00;;;;;20.89;54.41;101070.03;5092731;27;45542;-73
2021/09/08 04:16:34;;;;;;;;;15.00;14.25;;;;;20.69;54.92;101036.91;5094901;27;45556;-72
2021/09/08 04:18:59;;;;;;;;;14.00;14.00;;;;;20.87;55.06;101069.28;5094610;27;45428;-73
2021/09/08 04:21:25;;;;;;;;;17.75;15.25;;;;;20.84;55.59;101078.41;5092676;27;45269;-73
2021/09/08 04:23:50;;;;;;;;;19.00;16.25;;;;;20.81;55.83;101076.81;5091944;27;45441;-73
2021/09/08 04:26:15;;;;;;;;;19.50;16.75;;;;;20.79;55.38;101078.78;5094195;27;45879;-73
2021/09/08 04:28:41;;;;;;;;;19.75;16.00;;;;;20.78;56.08;101078.91;5096631;27;45596;-73
2021/09/08 04:31:06;;;;;;;;;18.00;16.75;;;;;20.76;56.17;101067.50;5091302;27;51513;-73
2021/09/08 04:33:31;;;;;;;;;20.75;17.25;;;;;20.72;56.44;101068.69;5092764;27;45439;-73
2021/09/08 04:35:57;;;;;;;;;16.50;15.25;;;;;20.68;55.88;101068.13;5091620;27;52441;-73
2021/09/08 04:38:23;;;;;;;;;17.00;16.25;;;;;20.64;56.41;101068.47;5093072;27;45441;-73
2021/09/08 04:40:50;;;;;;;;;18.00;16.25;;;;;20.59;56.69;101067.03;5095735;27;46581;-73
2021/09/08 04:43:15;;;;;;;;;19.00;15.25;;;;;20.51;56.89;101057.91;5100840;27;45844;-72
2021/09/08 04:45:40;;;;;;;;;18.50;14.50;;;;;20.48;56.66;101058.19;5096776;27;45498;-73
2021/09/08 04:48:06;;;;;;;;;19.50;14.75;;;;;20.51;57.25;101080.13;5087540;27;45570;-72
2021/09/08 04:50:31;;;;;;;;;21.75;18.50;;;;;20.32;57.27;101043.34;5079778;27;46128;-72
2021/09/08 04:52:56;;;;;;;;;20.50;15.75;;;;;20.21;56.86;101030.00;5090110;27;45625;-73
2021/09/08 04:55:22;;;;;;;;;16.75;16.00;;;;;20.40;57.40;101064.06;5097074;27;46438;-72
2021/09/08 04:57:47;;;;;;;;;16.00;16.00;;;;;20.36;56.91;101053.75;5092574;27;45462;-72
2021/09/08 05:00:12;;;;;;;;;22.25;18.00;;;;;20.41;57.33;101067.59;5101224;27;45316;-74
2021/09/08 05:02:38;;;;;;;;;19.25;16.25;;;;;20.37;56.83;101069.66;5089619;27;45468;-75
2021/09/08 05:05:03;;;;;;;;;23.50;17.75;;;;;20.35;57.45;101066.25;5092747;27;45521;-72
2021/09/08 05:07:29;;;;;;;;;17.75;14.50;;;;;20.29;57.17;101062.25;5093699;27;45530;-72
2021/09/08 05:09:54;;;;;;;;;19.75;16.75;;;;;20.19;57.06;101041.75;5092799;27;56517;-72
2021/09/08 05:12:19;;;;;;;;;24.75;17.75;;;;;20.33;57.67;101071.72;5091205;27;55451;-72
2021/09/08 05:14:45;;;;;;;;;19.00;17.25;;;;;20.30;57.55;101069.28;5092625;27;45716;-72
2021/09/08 05:17:10;;;;;;;;;18.50;16.75;;;;;20.32;57.66;101071.84;5094648;27;48297;-72
2021/09/08 05:19:35;;;;;;;;;21.50;19.00;;;;;20.15;57.82;101041.16;5094343;27;45423;-72
2021/09/08 05:22:01;;;;;;;;;22.00;16.75;;;;;20.29;57.22;101058.75;5091307;27;45774;-72
2021/09/08 05:24:26;;;;;;;;;17.25;17.25;;;;;20.35;57.23;101068.94;5092916;27;45492;-72
2021/09/08 05:26:51;;;;;;;;;20.75;17.25;;;;;20.27;57.21;101058.03;5091191;27;45487;-72
2021/09/08 05:29:17;;;;;;;;;22.25;18.00;;;;;20.09;57.71;101022.94;5091739;27;46026;-72
2021/09/08 05:31:43;;;;;;;;;15.00;14.50;;;;;20.32;57.36;101054.00;5095934;27;45563;-72
2021/09/08 05:34:08;;;;;;;;;14.50;14.50;;;;;20.34;58.03;101070.75;5091139;27;45565;-72
2021/09/08 05:36:34;;;;;;;;;19.75;19.50;;;;;20.36;57.65;101070.66;5091879;27;55283;-72
2021/09/08 05:38:59;;;;;;;;;17.25;16.75;;;;;20.38;58.02;101060.69;5092879;27;46103;-72
2021/09/08 05:41:24;;;;;;;;;19.25;17.25;;;;;20.37;57.75;101067.00;5092471;27;45959;-72
2021/09/08 05:43:50;;;;;;;;;23.50;20.00;;;;;20.37;57.99;101056.31;5094532;27;45300;-72
2021/09/08 05:46:15;;;;;;;;;16.75;15.25;;;;;20.39;57.51;101064.19;5095215;27;45362;-72
2021/09/08 05:48:41;;;;;;;;;24.50;20.25;;;;;20.40;57.60;101066.75;5090233;27;47056;-72
2021/09/08 05:51:06;;;;;;;;;23.75;18.75;;;;;20.43;57.88;101069.19;5091055;27;45449;-72
2021/09/08 05:53:31;;;;;;;;;14.75;14.50;;;;;20.43;57.83;101065.66;5090674;27;45379;-72
2021/09/08 05:55:56;;;;;;;;;20.25;17.25;;;;;20.45;58.39;101069.91;5093392;27;45330;-72
2021/09/08 05:58:22;;;;;;;;;20.00;16.25;;;;;20.48;58.13;101069.69;5093503;27;46433;-72
2021/09/08 06:00:48;;;;;;;;;21.25;17.25;;;;;20.41;58.21;101055.13;5092085;27;45512;-72
2021/09/08 06:03:13;;;;;;;;;17.50;17.50;;;;;20.55;58.02;101070.06;5091924;27;45432;-72
2021/09/08 06:05:38;;;;;;;;;20.50;18.00;;;;;20.58;58.06;101065.34;5092870;27;45354;-72
2021/09/08 06:08:04;;;;;;;;;20.75;17.00;;;;;20.64;57.71;101071.16;5092501;27;45590;-72
2021/09/08 06:10:29;;;;;;;;;20.50;18.50;;;;;20.70;57.85;101068.00;5092703;27;45538;-72
2021/09/08 06:12:54;;;;;;;;;23.00;19.75;;;;;20.72;57.61;101066.88;5091946;27;45946;-73
2021/09/08 06:15:20;;;;;;;;;19.25;18.50;;;;;20.75;57.33;101063.13;5092585;27;45548;-72
2021/09/08 06:17:47;;;;;;;;;23.50;19.50;;;;;20.85;57.32;101066.75;5092513;27;46037;-76
2021/09/08 06:20:13;;;;;;;;;23.50;18.50;;;;;20.79;57.30;101046.72;5083260;27;45499;-73
2021/09/08 06:22:38;;;;;;;;;19.75;17.00;;;;;20.96;57.27;101060.53;5089549;27;45517;-73
2021/09/08 06:25:05;;;;;;;;;22.75;17.50;;;;;20.98;56.92;101054.09;5091515;27;45703;-73
2021/09/08 06:27:30;;;;;;;;;18.75;18.75;;;;;21.01;56.77;101037.81;5094316;27;46145;-73
2021/09/08 06:29:55;;;;;;;;;24.50;19.50;;;;;21.11;57.07;101054.78;5095333;27;45580;-73
2021/09/08 06:32:21;;;;;;;;;20.50;17.25;;;;;21.10;56.65;101037.06;5096363;27;45554;-73
2021/09/08 06:34:47;;;;;;;;;19.25;16.75;;;;;21.25;56.69;101039.44;5097466;27;45274;-72
2021/09/08 06:37:13;;;;;;;;;19.75;16.75;;;;;21.30;56.48;101023.91;5096602;27;45423;-73
2021/09/08 06:39:39;;;;;;;;;20.50;17.00;;;;;21.47;56.64;101031.34;5095323;27;45340;-73
2021/09/08 06:42:05;;;;;;;;;18.00;16.00;;;;;21.84;56.59;101031.75;5095604;27;45559;-72
2021/09/08 06:44:30;;;;;;;;;18.50;16.75;;;;;22.13;55.34;101021.25;5095547;27;45385;-73
2021/09/08 06:46:55;;;;;;;;;15.00;14.50;;;;;22.55;55.25;101025.63;5096141;27;45517;-72
2021/09/08 06:49:22;;;;;;;;;19.25;15.75;;;;;22.77;54.12;101029.94;5097042;27;45536;-72
2021/09/08 06:51:48;;;;;;;;;18.00;17.50;;;;;22.94;54.02;101023.06;5102338;27;45361;-73
2021/09/08 06:54:13;;;;;;;;;18.25;18.00;;;;;23.27;53.51;101030.72;5104181;27;45382;-74
2021/09/08 06:56:39;;;;;;;;;17.50;17.25;;;;;23.55;53.23;101030.88;5097945;27;46093;-74
2021/09/08 06:59:04;;;;;;;;;18.75;16.00;;;;;23.64;52.55;101028.19;5094934;27;45472;-74
2021/09/08 07:01:29;;;;;;;;;20.75;16.75;;;;;23.58;52.67;101027.88;5089367;27;46913;-74
2021/09/08 07:03:55;;;;;;;;;21.25;20.25;;;;;23.52;52.83;101028.47;5088137;27;45520;-73
2021/09/08 07:06:22;;;;;;;;;18.50;16.50;;;;;23.62;52.37;101031.97;5091607;27;46116;-73
2021/09/08 07:08:49;;;;;;;;;18.00;17.00;;;;;23.71;52.05;101027.63;5079995;27;45377;-73
2021/09/08 07:11:14;;;;;;;;;17.25;17.25;;;;;23.94;51.58;101034.34;5095034;27;45376;-73
2021/09/08 07:13:40;;;;;;;;;19.50;17.00;;;;;24.01;51.45;101032.75;5096448;27;45487;-73
2021/09/08 07:16:05;;;;;;;;;19.00;17.00;;;;;23.85;51.67;101036.06;5095023;27;45442;-73
2021/09/08 07:18:30;;;;;;;;;16.00;15.25;;;;;23.67;52.08;101035.13;5093743;27;45722;-73
2021/09/08 07:20:55;;;;;;;;;20.25;17.00;;;;;23.56;52.04;101021.81;5093967;27;45452;-72
2021/09/08 07:23:21;;;;;;;;;16.75;15.50;;;;;23.57;51.89;101021.66;5094401;27;45796;-73
2021/09/08 07:25:46;;;;;;;;;16.00;14.00;;;;;23.46;52.08;101003.06;5095681;27;45574;-73
2021/09/08 07:28:11;;;;;;;;;65.00;52.00;;;;;23.49;52.10;101021.56;5094786;27;45484;-73
2021/09/08 07:30:37;;;;;;;;;21.75;18.75;;;;;23.48;51.86;101019.84;5090125;27;45434;-75
2021/09/08 07:33:03;;;;;;;;;20.75;17.25;;;;;23.45;52.59;101006.72;5095119;27;45378;-75
2021/09/08 07:35:28;;;;;;;;;14.00;13.25;;;;;23.58;52.22;101015.31;5088111;27;45857;-74
2021/09/08 07:37:54;;;;;;;;;18.75;15.50;;;;;23.56;52.00;101011.94;5091747;27;45728;-75
2021/09/08 07:40:20;;;;;;;;;18.50;14.50;;;;;23.65;51.81;101019.16;5085246;27;45398;-76
2021/09/08 07:42:45;;;;;;;;;17.25;15.25;;;;;23.70;51.85;101021.41;5088827;27;45512;-74
2021/09/08 07:45:11;;;;;;;;;16.50;15.25;;;;;23.75;52.15;101015.59;5085816;27;45516;-75
2021/09/08 07:47:36;;;;;;;;;16.25;15.00;;;;;23.86;51.86;101013.63;5083337;27;45391;-75
2021/09/08 07:50:03;;;;;;;;;19.50;14.00;;;;;23.95;51.84;101009.19;5078565;27;45283;-74
2021/09/08 07:52:28;;;;;;;;;15.75;15.50;;;;;24.00;52.08;101001.53;5083473;27;45448;-75
2021/09/08 07:54:54;;;;;;;;;18.75;16.25;;;;;24.10;52.04;101009.56;5085350;27;46047;-74
2021/09/08 07:57:19;;;;;;;;;18.50;15.00;;;;;24.20;51.97;101000.47;5088577;27;45495;-74
2021/09/08 07:59:44;;;;;;;;;19.25;16.00;;;;;24.32;51.74;101000.28;5092505;27;45289;-76
2021/09/08 08:02:10;;;;;;;;;21.25;18.25;;;;;24.43;51.18;101001.00;5077429;27;45624;-75
2021/09/08 08:04:35;;;;;;;;;18.75;17.75;;;;;24.56;51.24;101006.00;5081014;27;45363;-76
2021/09/08 08:07:00;;;;;;;;;14.25;14.25;;;;;24.63;50.57;101004.38;5090588;27;45599;-75
2021/09/08 08:09:25;;;;;;;;;18.25;15.50;;;;;24.71;50.89;101007.19;5087207;27;45519;-74
2021/09/08 08:11:51;;;;;;;;;17.25;14.50;;;;;24.81;50.81;101003.59;5049042;27;45608;-75
2021/09/08 08:14:16;;;;;;;;;18.00;16.00;;;;;24.92;50.80;101006.91;5034819;28;45444;-76
2021/09/08 08:16:42;;;;;;;;;20.75;14.25;;;;;25.04;50.80;100999.44;5039210;28;51647;-75
2021/09/08 08:19:08;;;;;;;;;19.00;16.25;;;;;25.22;50.04;101008.41;5035582;28;45442;-73
2021/09/08 08:21:34;;;;;;;;;16.50;16.00;;;;;25.36;50.17;101006.16;5039457;28;45359;-73
2021/09/08 08:24:00;;;;;;;;;20.75;18.75;;;;;25.49;50.03;101004.75;5031886;28;47237;-74
2021/09/08 08:26:26;;;;;;;;;17.00;16.25;;;;;25.66;50.35;100997.66;5032805;28;46123;-74
2021/09/08 08:28:52;;;;;;;;;15.00;14.25;;;;;25.90;49.74;101004.25;5034037;28;45228;-75
2021/09/08 08:31:18;;;;;;;;;17.00;16.00;;;;;26.21;49.37;100999.19;5033932;28;45235;-75
2021/09/08 08:33:46;;;;;;;;;20.25;17.25;;;;;26.47;48.74;100985.72;5033591;28;47684;-74
2021/09/08 08:36:11;;;;;;;;;18.50;16.00;;;;;27.17;48.67;100994.28;5033215;28;46115;-74
2021/09/08 08:38:37;;;;;;;;;23.25;17.25;;;;;28.36;47.91;100988.25;5033827;28;45442;-74
2021/09/08 08:41:02;;;;;;;;;48.25;37.75;;;;;30.11;45.53;100992.78;5032018;28;45473;-73
2021/09/08 08:43:28;;;;;;;;;14.50;14.00;;;;;31.40;43.73;100989.31;5034777;28;45444;-73
2021/09/08 08:45:53;;;;;;;;;16.75;15.50;;;;;33.82;41.62;100987.06;5032982;28;45420;-73
2021/09/08 08:48:19;;;;;;;;;20.50;17.00;;;;;36.59;38.20;100991.63;5032843;28;45736;-73
2021/09/08 08:50:44;;;;;;;;;16.50;14.50;;;;;39.20;34.51;100973.66;5030247;28;45544;-76
2021/09/08 08:53:09;;;;;;;;;14.25;14.00;;;;;41.44;31.99;100986.63;5032806;28;45484;-74
2021/09/08 08:55:36;;;;;;;;;18.00;17.25;;;;;43.36;30.48;100978.44;5034919;28;45480;-75
2021/09/08 08:58:01;;;;;;;;;16.00;14.00;;;;;44.88;27.83;100985.34;5033392;28;45573;-76
2021/09/08 09:00:27;;;;;;;;;17.50;16.00;;;;;46.23;26.81;100979.84;5032891;28;45438;-75
2021/09/08 09:02:54;;;;;;;;;14.25;13.00;;;;;47.33;24.75;100982.31;5033479;28;45576;-74
2021/09/08 09:05:30;;;;;;;;;14.25;13.50;;;;;47.93;24.31;100976.72;5033037;28;45678;-73
2021/09/08 09:07:56;;;;;;;;;18.25;18.25;;;;;48.52;23.52;100974.06;5033711;28;45357;-74
2021/09/08 09:10:21;;;;;;;;;14.75;13.50;;;;;49.42;23.24;100976.81;5033602;28;45438;-73
2021/09/08 09:12:47;;;;;;;;;17.50;15.00;;;;;50.21;21.69;100981.56;5032251;28;45462;-70
2021/09/08 09:15:18;;;;;;;;;17.50;15.75;;;;;50.80;20.91;100971.56;5032388;28;46062;-71
2021/09/08 09:17:46;;;;;;;;;15.50;14.25;;;;;51.33;20.27;100975.91;5032951;28;45372;-71
2021/09/08 09:20:17;;;;;;;;;16.25;14.75;;;;;51.73;19.80;100969.97;5031914;28;45573;-71
2021/09/08 09:22:48;;;;;;;;;15.25;14.50;;;;;52.28;19.51;100969.00;5033922;28;46164;-73
2021/09/08 09:25:17;;;;;;;;;14.50;14.00;;;;;52.99;18.73;100959.59;5031520;28;45758;-73
2021/09/08 09:27:45;;;;;;;;;18.00;14.25;;;;;53.69;18.22;100970.84;5032652;28;45400;-72
2021/09/08 09:30:13;;;;;;;;;16.75;14.75;;;;;53.76;17.90;100965.44;5032573;28;45550;-72
2021/09/08 09:32:44;;;;;;;;;12.75;12.75;;;;;53.78;17.88;100962.28;5031397;28;46153;-73
2021/09/08 09:35:13;;;;;;;;;14.00;12.25;;;;;53.53;17.47;100969.94;5032664;28;45798;-73
2021/09/08 09:37:48;;;;;;;;;15.75;14.00;;;;;52.34;18.15;100966.81;5049839;28;45378;-75
2021/09/08 09:40:15;;;;;;;;;14.75;13.50;;;;;50.72;18.61;100966.78;5032482;28;45355;-73
2021/09/08 09:42:43;;;;;;;;;13.50;12.75;;;;;49.33;19.29;100963.63;5034211;28;46252;-72
2021/09/08 09:45:10;;;;;;;;;13.50;12.50;;;;;48.01;19.98;100964.84;5046778;28;45330;-73
2021/09/08 09:47:37;;;;;;;;;14.50;13.75;;;;;46.98;20.30;100953.97;5036473;28;45584;-73
2021/09/08 09:50:06;;;;;;;;;14.50;14.50;;;;;46.02;20.97;100964.53;5051438;28;45831;-71
2021/09/08 09:52:33;;;;;;;;;12.50;11.25;;;;;45.46;21.78;100954.88;5038480;28;46625;-71
2021/09/08 09:55:00;;;;;;;;;14.50;14.00;;;;;45.09;22.09;100951.91;5035998;28;45616;-72
2021/09/08 09:57:26;;;;;;;;;16.50;13.75;;;;;44.69;22.02;100951.94;5040315;28;45403;-73
2021/09/08 09:59:53;;;;;;;;;16.50;14.50;;;;;44.15;22.64;100949.16;5048103;28;45550;-74
2021/09/08 10:02:19;;;;;;;;;12.25;12.00;;;;;43.52;23.44;100946.91;5040855;28;46077;-74
2021/09/08 10:04:45;;;;;;;;;14.00;13.00;;;;;43.05;23.68;100936.16;5041223;28;45404;-73
2021/09/08 10:07:11;;;;;;;;;15.00;15.00;;;;;42.88;23.66;100939.19;5049526;28;45534;-73
2021/09/08 10:09:38;;;;;;;;;14.50;12.75;;;;;42.87;24.51;100938.34;5044648;28;45481;-74
2021/09/08 10:12:05;;;;;;;;;17.75;15.25;;;;;42.91;24.09;100933.91;5036116;28;45658;-73
2021/09/08 10:14:32;;;;;;;;;13.50;13.50;;;;;42.82;24.02;100949.41;5036540;28;45653;-72
2021/09/08 10:17:02;;;;;;;;;16.25;15.00;;;;;42.32;24.14;100937.13;5038246;28;45498;-73
2021/09/08 10:19:28;;;;;;;;;15.25;13.00;;;;;41.80;24.66;100937.19;5040727;28;45376;-73
2021/09/08 10:22:03;;;;;;;;;11.75;11.75;;;;;41.25;25.31;100924.69;5035539;28;45268;-72
2021/09/08 10:24:29;;;;;;;;;15.25;12.00;;;;;40.74;25.21;100943.53;5035667;28;45379;-73
2021/09/08 10:26:54;;;;;;;;;15.25;14.00;;;;;40.18;26.44;100929.97;5034549;28;45502;-73
2021/09/08 10:29:26;;;;;;;;;13.50;13.25;;;;;39.72;26.87;100931.28;5035824;28;45359;-75
2021/09/08 10:31:51;;;;;;;;;12.75;12.50;;;;;39.37;26.70;100937.94;5036352;28;46100;-74
2021/09/08 10:34:19;;;;;;;;;15.50;15.50;;;;;39.16;27.22;100934.00;5036637;28;45289;-72
2021/09/08 10:36:45;;;;;;;;;15.50;14.00;;;;;38.79;27.78;100923.50;5034427;28;45445;-73
2021/09/08 10:39:12;;;;;;;;;15.00;14.00;;;;;38.63;28.14;100905.88;5034405;28;45502;-71
2021/09/08 10:41:50;;;;;;;;;13.75;13.50;;;;;38.65;27.94;100919.38;5033223;28;46214;-73
2021/09/08 10:44:18;;;;;;;;;17.00;14.25;;;;;38.48;28.41;100916.59;5031040;28;45615;-73
2021/09/08 10:47:00;;;;;;;;;17.25;16.00;;;;;38.45;28.80;100922.56;5032605;28;45510;-74
2021/09/08 10:49:37;;;;;;;;;14.25;14.00;;;;;38.19;28.81;100917.63;5031258;28;45411;-73
2021/09/08 10:52:10;;;;;;;;;14.50;14.50;;;;;37.94;29.24;100910.53;5030842;28;47047;-73
2021/09/08 10:54:54;;;;;;;;;17.50;13.25;;;;;37.88;29.49;100913.44;5031899;28;45805;-75
2021/09/08 10:57:40;;;;;;;;;20.50;17.00;;;;;37.77;29.94;100910.44;5032939;28;45548;-74
2021/09/08 11:00:11;;;;;;;;;16.00;13.75;;;;;37.49;29.87;100905.72;5032294;28;45825;-76
2021/09/08 11:02:40;;;;;;;;;15.25;15.25;;;;;37.20;29.77;100909.38;5030404;28;46223;-74
2021/09/08 11:05:06;;;;;;;;;15.00;13.00;;;;;36.95;30.10;100912.34;5032741;28;45750;-77